createdAt,value
2023-04-18T00:01:38.460Z,5.33
2023-04-18T00:04:42.011Z,4.57
2023-04-18T00:07:45.344Z,4.80
2023-04-18T00:10:48.178Z,4.85
2023-04-18T00:13:50.911Z,5.50
2023-04-18T00:16:54.353Z,5.23
2023-04-18T00:19:58.481Z,5.30
2023-04-18T00:23:01.985Z,4.93
2023-04-18T00:26:04.738Z,5.03
2023-04-18T00:29:07.587Z,5.95
2023-04-18T00:32:11.886Z,4.60
2023-04-18T00:35:14.634Z,5.05
2023-04-18T00:38:17.373Z,5.03
2023-04-18T00:41:22.275Z,4.18
2023-04-18T00:44:25.233Z,4.63
2023-04-18T00:47:28.165Z,4.07
2023-04-18T00:50:31.843Z,4.18
2023-04-18T00:53:35.148Z,4.63
2023-04-18T00:56:38.080Z,4.13
2023-04-18T00:59:40.969Z,4.93
2023-04-18T01:02:44.323Z,4.43
2023-04-18T01:05:47.300Z,3.83
2023-04-18T01:08:50.158Z,4.35
2023-04-18T01:11:53.880Z,4.18
2023-04-18T01:14:57.378Z,4.57
2023-04-18T01:18:00.347Z,4.70
2023-04-18T01:21:03.204Z,5.28
2023-04-18T01:24:15.376Z,4.80
2023-04-18T01:27:18.401Z,4.82
2023-04-18T01:30:21.477Z,4.38
2023-04-18T01:33:24.317Z,5.53
2023-04-18T01:36:27.661Z,4.75
2023-04-18T01:39:30.600Z,4.93
2023-04-18T01:42:33.634Z,4.68
2023-04-18T01:45:36.470Z,4.95
2023-04-18T01:48:39.509Z,4.80
2023-04-18T01:51:43.301Z,5.28
2023-04-18T01:54:46.086Z,4.80
2023-04-18T01:57:50.877Z,4.10
2023-04-18T02:00:57.774Z,4.85
2023-04-18T02:04:00.558Z,4.68
2023-04-18T02:07:03.540Z,4.55
2023-04-18T02:10:06.892Z,5.07
2023-04-18T02:13:09.900Z,4.60
2023-04-18T02:16:13.874Z,4.25
2023-04-18T02:19:19.365Z,5.20
2023-04-18T02:22:22.535Z,4.20
2023-04-18T02:25:27.789Z,4.85
2023-04-18T02:28:30.945Z,5.03
2023-04-18T02:31:33.810Z,5.70
2023-04-18T02:34:38.058Z,5.85
2023-04-18T02:37:40.868Z,6.18
2023-04-18T02:40:43.592Z,5.22
2023-04-18T02:43:46.504Z,5.90
2023-04-18T02:46:51.340Z,5.85
2023-04-18T02:49:54.395Z,5.55
2023-04-18T02:52:57.158Z,6.55
2023-04-18T02:56:06.408Z,6.07
2023-04-18T02:59:29.540Z,5.60
2023-04-18T03:02:53.507Z,6.68
2023-04-18T03:06:09.776Z,6.25
2023-04-18T03:09:12.888Z,5.90
2023-04-18T03:12:21.280Z,6.35
2023-04-18T03:15:24.083Z,6.40
2023-04-18T03:18:28.667Z,6.95
2023-04-18T03:21:34.148Z,7.40
2023-04-18T03:24:37.662Z,7.45
2023-04-18T03:27:43.731Z,6.50
2023-04-18T03:30:48.882Z,6.03
2023-04-18T03:33:52.386Z,6.47
2023-04-18T03:36:56.832Z,7.18
2023-04-18T03:40:00.546Z,6.25
2023-04-18T03:43:05.642Z,7.03
2023-04-18T03:46:08.517Z,6.80
2023-04-18T03:49:12.800Z,6.90
2023-04-18T03:52:16.198Z,5.72
2023-04-18T03:55:19.873Z,6.07
2023-04-18T03:58:23.883Z,6.45
2023-04-18T04:01:28.058Z,6.13
2023-04-18T04:04:31.049Z,6.55
2023-04-18T04:07:35.103Z,6.60
2023-04-18T04:10:37.946Z,6.80
2023-04-18T04:13:41.156Z,6.07
2023-04-18T04:16:44.774Z,6.60
2023-04-18T04:19:51.505Z,5.80
2023-04-18T04:22:57.002Z,6.65
2023-04-18T04:26:04.350Z,6.07
2023-04-18T04:29:16.483Z,6.32
2023-04-18T04:32:27.625Z,6.00
2023-04-18T04:35:32.271Z,6.13
2023-04-18T04:38:38.515Z,7.57
2023-04-18T04:41:42.190Z,9.13
2023-04-18T04:44:46.737Z,8.73
2023-04-18T04:47:51.404Z,6.47
2023-04-18T04:50:58.976Z,6.82
2023-04-18T04:54:02.282Z,7.32
2023-04-18T04:57:05.535Z,7.03
2023-04-18T05:00:09.174Z,7.97
2023-04-18T05:03:12.441Z,7.20
2023-04-18T05:06:20.602Z,5.10
2023-04-18T05:09:23.360Z,6.40
2023-04-18T05:12:26.902Z,5.50
2023-04-18T05:15:29.997Z,5.50
2023-04-18T05:18:34.937Z,5.37
2023-04-18T05:21:38.865Z,5.22
2023-04-18T05:24:43.598Z,4.75
2023-04-18T05:27:47.285Z,4.45
2023-04-18T05:30:50.079Z,4.80
2023-04-18T05:33:52.897Z,4.70
2023-04-18T05:36:55.655Z,4.50
2023-04-18T05:40:00.596Z,5.63
2023-04-18T05:43:04.172Z,4.95
2023-04-18T05:46:09.566Z,4.03
2023-04-18T05:49:13.235Z,4.57
2023-04-18T05:52:16.339Z,4.65
2023-04-18T05:55:19.216Z,5.32
2023-04-18T05:58:22.021Z,4.00
2023-04-18T06:01:25.433Z,4.32
2023-04-18T06:04:28.662Z,3.87
2023-04-18T06:07:31.604Z,3.40
2023-04-18T06:10:34.430Z,3.42
2023-04-18T06:13:37.586Z,3.20
2023-04-18T06:16:40.506Z,3.42
2023-04-18T06:19:43.331Z,4.00
2023-04-18T06:22:46.089Z,3.35
2023-04-18T06:25:48.981Z,3.35
2023-04-18T06:28:52.045Z,3.08
2023-04-18T06:31:54.900Z,3.15
2023-04-18T06:34:57.864Z,3.10
2023-04-18T06:38:00.659Z,2.95
2023-04-18T06:41:03.480Z,3.10
2023-04-18T06:44:08.007Z,2.83
2023-04-18T06:47:11.723Z,2.85
2023-04-18T06:50:18.207Z,2.43
2023-04-18T06:53:21.156Z,2.22
2023-04-18T06:56:24.078Z,2.25
2023-04-18T06:59:27.402Z,1.92
2023-04-18T07:02:30.327Z,2.08
2023-04-18T07:05:33.459Z,2.20
2023-04-18T07:08:36.928Z,2.60
2023-04-18T07:11:40.772Z,2.05
2023-04-18T07:14:43.560Z,2.00
2023-04-18T07:17:46.437Z,2.47
2023-04-18T07:20:49.273Z,2.23
2023-04-18T07:23:52.158Z,2.08
2023-04-18T07:26:55.258Z,2.22
2023-04-18T07:29:58.172Z,2.08
2023-04-18T07:33:01.939Z,1.98
2023-04-18T07:36:05.485Z,2.47
2023-04-18T07:39:08.367Z,2.20
2023-04-18T07:42:11.532Z,1.95
2023-04-18T07:45:16.161Z,1.63
2023-04-18T07:48:22.296Z,2.35
2023-04-18T07:51:31.464Z,2.40
2023-04-18T07:54:34.510Z,2.22
2023-04-18T07:57:37.288Z,1.60
2023-04-18T08:00:42.586Z,1.65
2023-04-18T08:03:47.598Z,1.88
2023-04-18T08:06:50.371Z,1.97
2023-04-18T08:09:53.213Z,1.92
2023-04-18T08:12:56.582Z,2.28
2023-04-18T08:16:00.117Z,2.50
2023-04-18T08:19:03.353Z,2.30
2023-04-18T08:22:10.764Z,2.63
2023-04-18T08:25:13.740Z,2.80
2023-04-18T08:28:16.526Z,2.45
2023-04-18T08:31:19.379Z,2.10
2023-04-18T08:34:22.836Z,2.58
2023-04-18T08:37:27.867Z,1.87
2023-04-18T08:40:30.702Z,2.90
2023-04-18T08:43:33.555Z,2.08
2023-04-18T08:46:37.320Z,2.22
2023-04-18T08:49:40.515Z,1.40
2023-04-18T08:52:49.900Z,2.10
2023-04-18T08:55:57.396Z,2.10
2023-04-18T08:59:01.419Z,2.15
2023-04-18T09:02:09.056Z,2.08
2023-04-18T09:05:19.083Z,2.08
2023-04-18T09:08:24.592Z,2.20
2023-04-18T09:11:31.722Z,2.17
2023-04-18T09:14:42.976Z,2.67
2023-04-18T09:17:52.672Z,1.85
2023-04-18T09:20:56.900Z,1.75
2023-04-18T09:24:29.502Z,1.57
2023-04-18T09:27:34.827Z,1.75
2023-04-18T09:30:40.141Z,1.52
2023-04-18T09:33:54.264Z,2.00
2023-04-18T09:37:15.201Z,1.70
2023-04-18T09:40:19.458Z,2.50
2023-04-18T09:43:22.235Z,2.10
2023-04-18T09:46:27.534Z,1.75
2023-04-18T09:49:30.427Z,2.20
2023-04-18T09:52:49.336Z,2.22
2023-04-18T09:55:57.773Z,2.50
2023-04-18T09:59:09.591Z,2.20
2023-04-18T10:02:21.030Z,2.72
2023-04-18T10:05:35.936Z,2.55
2023-04-18T10:08:40.214Z,3.08
2023-04-18T10:11:44.454Z,2.83
2023-04-18T10:14:48.343Z,2.38
2023-04-18T10:21:04.406Z,4.32
2023-04-18T10:24:07.532Z,3.17
2023-04-18T10:27:10.319Z,2.90
2023-04-18T10:30:13.695Z,2.90
2023-04-18T10:33:40.983Z,1.95
2023-04-18T10:37:04.549Z,2.38
2023-04-18T10:40:10.400Z,2.50
2023-04-18T10:43:13.454Z,2.90
2023-04-18T10:46:30.504Z,2.90
2023-04-18T11:07:39.788Z,1.80
2023-04-18T11:10:42.541Z,1.75
2023-04-18T11:13:58.751Z,1.80
2023-04-18T11:17:25.204Z,1.73
2023-04-18T11:20:29.421Z,1.55
2023-04-18T11:23:32.220Z,1.90
2023-04-18T11:26:38.404Z,2.17
2023-04-18T11:29:41.160Z,2.45
2023-04-18T11:32:44.682Z,1.92
2023-04-18T11:35:47.589Z,1.55
2023-04-18T11:38:50.335Z,2.30
2023-04-18T11:41:53.314Z,2.03
2023-04-18T11:44:56.163Z,1.90
2023-04-18T11:48:00.177Z,2.50
2023-04-18T11:51:03.049Z,3.55
2023-04-18T11:54:05.943Z,1.87
2023-04-18T11:57:28.165Z,2.00
2023-04-18T12:00:36.038Z,2.53
2023-04-18T12:03:39.326Z,2.97
2023-04-18T12:06:49.143Z,2.17
2023-04-18T12:09:52.685Z,1.87
2023-04-18T12:13:04.021Z,2.05
2023-04-18T12:16:07.880Z,1.40
2023-04-18T12:19:11.428Z,1.75
2023-04-18T12:22:17.006Z,1.33
2023-04-18T12:25:27.274Z,0.90
2023-04-18T12:28:31.356Z,0.90
2023-04-18T12:31:34.129Z,1.00
2023-04-18T12:34:36.934Z,0.73
2023-04-18T12:37:39.638Z,0.40
2023-04-18T12:40:42.455Z,0.90
2023-04-18T12:43:45.545Z,1.02
2023-04-18T12:46:48.668Z,0.82
2023-04-18T12:49:51.688Z,0.70
2023-04-18T12:53:02.332Z,1.40
2023-04-18T12:56:05.480Z,1.03
2023-04-18T12:59:08.280Z,0.82
2023-04-18T13:02:11.585Z,1.10
2023-04-18T13:05:16.169Z,1.02
2023-04-18T13:08:19.204Z,1.10
2023-04-18T13:11:22.704Z,1.40
2023-04-18T13:14:26.638Z,0.85
2023-04-18T13:17:30.699Z,1.40
2023-04-18T13:20:35.440Z,2.30
2023-04-18T13:23:38.200Z,2.30
2023-04-18T13:26:40.977Z,2.00
2023-04-18T13:29:44.562Z,2.38
2023-04-18T13:32:47.492Z,2.90
2023-04-18T13:35:50.305Z,2.85
2023-04-18T13:38:53.112Z,3.17
2023-04-18T13:41:55.933Z,3.77
2023-04-18T13:45:00.045Z,4.63
2023-04-18T13:48:02.805Z,3.80
2023-04-18T13:51:06.090Z,4.55
2023-04-18T13:54:09.041Z,3.30
2023-04-18T13:57:12.226Z,3.10
2023-04-18T14:00:15.690Z,2.92
2023-04-18T14:03:18.682Z,2.70
2023-04-18T14:06:21.524Z,3.30
2023-04-18T14:09:24.213Z,3.25
2023-04-18T14:12:27.420Z,3.47
2023-04-18T14:15:30.830Z,3.25
2023-04-18T14:18:33.645Z,5.32
2023-04-18T14:21:36.861Z,4.25
2023-04-18T14:24:39.942Z,2.70
2023-04-18T14:27:47.703Z,3.70
2023-04-18T14:30:51.933Z,3.67
2023-04-18T14:33:54.660Z,3.47
2023-04-18T14:36:57.376Z,3.35
2023-04-18T14:40:00.045Z,4.22
2023-04-18T14:43:02.839Z,2.97
2023-04-18T14:46:12.256Z,3.00
2023-04-18T14:49:15.175Z,3.30
2023-04-18T14:52:18.066Z,3.40
2023-04-18T14:55:20.835Z,3.72
2023-04-18T14:58:23.610Z,3.40
2023-04-18T15:01:26.601Z,3.20
2023-04-18T15:04:29.536Z,3.15
2023-04-18T15:07:32.342Z,2.75
2023-04-18T15:10:35.993Z,3.80
2023-04-18T15:13:38.812Z,3.50
2023-04-18T15:16:41.637Z,3.95
2023-04-18T15:19:44.758Z,3.85
2023-04-18T15:22:47.616Z,3.97
2023-04-18T15:25:50.345Z,3.90
2023-04-18T15:28:54.662Z,4.30
2023-04-18T15:31:57.391Z,4.55
2023-04-18T15:35:00.172Z,4.32
2023-04-18T15:38:03.305Z,3.97
2023-04-18T15:41:06.257Z,5.20
2023-04-18T15:44:09.294Z,5.70
2023-04-18T15:47:12.073Z,5.05
2023-04-18T15:50:16.515Z,6.53
2023-04-18T15:53:19.650Z,5.40
2023-04-18T15:56:25.198Z,4.65
2023-04-18T15:59:28.060Z,4.50
2023-04-18T16:02:31.528Z,4.70
2023-04-18T16:05:34.368Z,4.00
2023-04-18T16:08:38.214Z,4.45
2023-04-18T16:11:41.260Z,5.20
2023-04-18T16:14:44.357Z,5.20
2023-04-18T16:17:47.067Z,4.85
2023-04-18T16:20:49.930Z,5.05
2023-04-18T16:23:52.778Z,5.63
2023-04-18T16:26:55.760Z,6.00
2023-04-18T16:29:58.545Z,5.30
2023-04-18T16:33:01.444Z,5.78
2023-04-18T16:36:05.216Z,6.28
2023-04-18T16:39:08.000Z,5.00
2023-04-18T16:45:13.724Z,5.60
2023-04-18T16:48:16.549Z,4.80
2023-04-18T16:51:19.352Z,6.22
2023-04-18T16:54:22.147Z,5.47
2023-04-18T16:57:24.905Z,4.38
2023-04-18T17:00:27.700Z,5.63
2023-04-18T17:03:30.859Z,6.43
2023-04-18T17:06:34.092Z,6.25
2023-04-18T17:09:36.972Z,5.30
2023-04-18T17:12:39.897Z,6.22
2023-04-18T17:15:43.125Z,6.17
2023-04-18T17:18:46.067Z,7.40
2023-04-18T17:21:51.034Z,8.15
2023-04-18T17:24:54.245Z,11.57
2023-04-18T17:27:57.425Z,14.10
2023-04-18T17:31:02.013Z,15.40
2023-04-18T17:34:04.906Z,18.83
2023-04-18T17:37:08.160Z,18.70
2023-04-18T17:40:12.109Z,15.05
2023-04-18T17:43:15.027Z,10.40
2023-04-18T17:46:18.319Z,10.20
2023-04-18T17:49:21.878Z,9.13
2023-04-18T17:52:24.813Z,9.45
2023-04-18T17:55:28.024Z,9.90
2023-04-18T17:58:31.267Z,11.63
2023-04-18T18:01:34.902Z,10.27
2023-04-18T18:04:39.227Z,10.52
2023-04-18T18:07:48.238Z,6.97
2023-04-18T18:10:53.260Z,4.85
2023-04-18T18:13:57.583Z,5.95
2023-04-18T18:17:00.869Z,6.57
2023-04-18T18:20:08.758Z,7.28
2023-04-18T18:23:11.827Z,7.80
2023-04-18T18:26:15.186Z,7.78
2023-04-18T18:29:19.427Z,7.57
2023-04-18T18:32:22.462Z,7.60
2023-04-18T18:35:25.550Z,6.25
2023-04-18T18:38:28.661Z,5.60
2023-04-18T18:41:31.610Z,5.72
2023-04-18T18:44:35.796Z,6.38
2023-04-18T18:47:40.094Z,7.20
2023-04-18T18:50:46.686Z,7.47
2023-04-18T18:53:50.534Z,8.00
2023-04-18T18:56:53.674Z,8.18
2023-04-18T18:59:56.445Z,8.07
2023-04-18T19:02:59.711Z,8.87
2023-04-18T19:06:03.995Z,11.25
2023-04-18T19:09:07.333Z,12.63
2023-04-18T19:12:10.802Z,12.18
2023-04-18T19:15:13.940Z,11.35
2023-04-18T19:18:19.601Z,10.23
2023-04-18T19:21:24.040Z,8.02
2023-04-18T19:24:27.249Z,8.27
2023-04-18T19:27:30.377Z,9.27
2023-04-18T19:30:33.527Z,10.38
2023-04-18T19:33:37.586Z,8.90
2023-04-18T19:36:40.662Z,9.48
2023-04-18T19:39:43.417Z,9.70
2023-04-18T19:42:46.758Z,8.45
2023-04-18T19:45:50.965Z,9.68
2023-04-18T19:48:54.538Z,8.23
2023-04-18T19:51:57.618Z,8.13
2023-04-18T19:55:00.796Z,7.57
2023-04-18T19:58:05.326Z,6.75
2023-04-18T20:01:10.167Z,7.90
2023-04-18T20:04:13.562Z,8.07
2023-04-18T20:07:16.491Z,9.25
2023-04-18T20:10:23.767Z,10.20
2023-04-18T20:13:26.780Z,9.07
2023-04-18T20:16:29.530Z,8.75
2023-04-18T20:19:32.631Z,7.63
2023-04-18T20:22:36.154Z,8.90
2023-04-18T20:25:39.162Z,8.35
2023-04-18T20:28:42.158Z,8.00
2023-04-18T20:31:45.343Z,7.88
2023-04-18T20:34:48.723Z,6.93
2023-04-18T20:37:51.860Z,8.10
2023-04-18T20:40:54.813Z,7.38
2023-04-18T20:43:58.789Z,7.55
2023-04-18T20:47:02.402Z,6.78
2023-04-18T20:50:05.724Z,7.33
2023-04-18T20:53:08.588Z,7.05
2023-04-18T20:56:11.418Z,6.32
2023-04-18T20:59:14.157Z,6.63
2023-04-18T21:02:17.487Z,7.00
2023-04-18T21:05:20.291Z,7.73
2023-04-18T21:08:23.075Z,6.70
2023-04-18T21:11:26.103Z,7.75
2023-04-18T21:14:29.082Z,6.03
2023-04-18T21:17:31.833Z,6.28
2023-04-18T21:20:36.575Z,5.93
2023-04-18T21:23:45.143Z,5.53
2023-04-18T21:26:47.972Z,5.20
2023-04-18T21:29:50.776Z,4.63
2023-04-18T21:32:53.676Z,4.93
2023-04-18T21:35:56.535Z,4.97
2023-04-18T21:39:01.127Z,4.60
2023-04-18T21:42:04.249Z,4.00
2023-04-18T21:45:07.678Z,3.70
2023-04-18T21:48:10.768Z,4.13
2023-04-18T21:51:15.657Z,4.57
2023-04-18T21:54:18.462Z,3.80
2023-04-18T21:57:21.366Z,4.18
2023-04-18T22:00:24.438Z,3.75
2023-04-18T22:03:31.779Z,3.88
2023-04-18T22:06:34.945Z,3.77
2023-04-18T22:09:37.908Z,2.67
2023-04-18T22:12:40.802Z,2.50
2023-04-18T22:15:43.478Z,3.67
2023-04-18T22:18:46.322Z,3.28
2023-04-18T22:21:49.048Z,2.50
2023-04-18T22:24:51.786Z,3.28
2023-04-18T22:27:54.812Z,2.63
2023-04-18T22:30:57.551Z,2.97
2023-04-18T22:34:00.459Z,2.58
2023-04-18T22:37:03.176Z,2.63
2023-04-18T22:40:06.817Z,3.28
2023-04-18T22:43:13.917Z,2.80
2023-04-18T22:46:16.653Z,2.75
2023-04-18T22:49:19.391Z,2.80
2023-04-18T22:52:24.917Z,2.73
2023-04-18T22:55:27.596Z,2.60
2023-04-18T22:58:31.476Z,2.65
2023-04-18T23:01:34.260Z,2.72
2023-04-18T23:04:37.193Z,2.65
2023-04-18T23:07:39.986Z,3.43
2023-04-18T23:10:42.789Z,2.20
2023-04-18T23:13:45.629Z,2.28
2023-04-18T23:16:48.738Z,2.70
2023-04-18T23:19:51.568Z,2.70
2023-04-18T23:22:55.538Z,2.53
2023-04-18T23:25:58.421Z,2.70
2023-04-18T23:29:01.594Z,2.15
2023-04-18T23:32:05.056Z,2.22
2023-04-18T23:35:08.081Z,2.25
2023-04-18T23:38:11.161Z,2.33
2023-04-18T23:41:13.964Z,2.38
2023-04-18T23:44:16.905Z,2.45
2023-04-18T23:47:19.736Z,2.28
2023-04-18T23:50:22.835Z,1.83
2023-04-18T23:53:25.755Z,2.07
2023-04-18T23:56:29.826Z,2.33
2023-04-18T23:59:32.490Z,2.10
